Shaker Heights, Ohio
Current Conditions -  °F | °C
As of 5:41 AM on Thursday 27 Nov 2014 (Local Time) from KBKL Reporting Station
Light Snow Light Snow  
Wind Chill: 27°   Ceiling: 2500
Heat Index: 32°   Visibility: 4mi
Dew Point: 31°   Wind: 5mph
Humidity: 96%   Direction: 180°S
Pressure: 30.04"   Gusts: NA
Location:  41.47°N, 81.56°W
Report Text: KBKL 271041Z 18004KT 4SM -SN BR FEW009 BKN025 OVC043 00/M01 A3004 RMK AO2 SNB00 P0000 T00001006
Loading
Personal Weather Stations






























Interactive Weather Map New forecast layout! Learn more

10-Day Weather Forecast

Advertisements
Track Severe Weather on mobile